createdAt,value
2019-04-26T00:00:47.211Z,1001.49
2019-04-26T00:01:47.209Z,1001.51
2019-04-26T00:02:47.201Z,1001.51
2019-04-26T00:03:47.196Z,1001.51
2019-04-26T00:04:47.190Z,1001.48
2019-04-26T00:05:47.206Z,1001.48
2019-04-26T00:06:47.185Z,1001.49
2019-04-26T00:07:47.180Z,1001.49
2019-04-26T00:08:47.183Z,1001.51
2019-04-26T00:09:47.176Z,1001.53
2019-04-26T00:10:47.171Z,1001.51
2019-04-26T00:11:47.167Z,1001.50
2019-04-26T00:12:47.163Z,1001.44
2019-04-26T00:13:47.158Z,1001.40
2019-04-26T00:14:47.157Z,1001.36
2019-04-26T00:15:47.152Z,1001.34
2019-04-26T00:16:47.149Z,1001.33
2019-04-26T00:17:47.147Z,1001.33
2019-04-26T00:18:47.144Z,1001.34
2019-04-26T00:19:47.136Z,1001.31
2019-04-26T00:20:47.136Z,1001.26
2019-04-26T00:21:47.129Z,1001.23
2019-04-26T00:22:47.128Z,1001.23
2019-04-26T00:23:47.120Z,1001.26
2019-04-26T00:24:47.117Z,1001.29
2019-04-26T00:25:47.124Z,1001.30
2019-04-26T00:26:47.114Z,1001.23
2019-04-26T00:27:47.107Z,1001.23
2019-04-26T00:28:47.109Z,1001.20
2019-04-26T00:29:47.102Z,1001.19
2019-04-26T00:30:47.098Z,1001.19
2019-04-26T00:31:47.092Z,1001.19
2019-04-26T00:32:47.088Z,1001.19
2019-04-26T00:33:47.090Z,1001.16
2019-04-26T00:34:47.081Z,1001.16
2019-04-26T00:35:48.158Z,1001.16
2019-04-26T00:36:47.076Z,1001.14
2019-04-26T00:37:47.074Z,1001.17
2019-04-26T00:38:47.073Z,1001.16
2019-04-26T00:39:47.070Z,1001.12
2019-04-26T00:40:47.059Z,1001.14
2019-04-26T00:41:47.057Z,1001.13
2019-04-26T00:42:47.052Z,1001.14
2019-04-26T00:43:47.082Z,1001.15
2019-04-26T00:44:47.049Z,1001.14
2019-04-26T00:45:47.040Z,1001.13
2019-04-26T00:46:47.042Z,1001.14
2019-04-26T00:47:47.041Z,1001.10
2019-04-26T00:48:47.034Z,1001.09
2019-04-26T00:49:47.029Z,1001.14
2019-04-26T00:50:47.025Z,1001.18
2019-04-26T00:51:47.020Z,1001.26
2019-04-26T00:52:47.098Z,1001.30
2019-04-26T00:53:47.015Z,1001.29
2019-04-26T00:54:47.014Z,1001.34
2019-04-26T00:55:47.010Z,1001.37
2019-04-26T00:56:47.002Z,1001.39
2019-04-26T00:57:47.004Z,1001.45
2019-04-26T00:58:47.004Z,1001.50
2019-04-26T00:59:46.994Z,1001.51
2019-04-26T01:00:46.986Z,1001.45
2019-04-26T01:01:46.988Z,1001.48
2019-04-26T01:02:46.984Z,1001.52
2019-04-26T01:03:46.976Z,1001.54
2019-04-26T01:04:46.971Z,1001.62
2019-04-26T01:05:59.230Z,1001.63
2019-04-26T01:06:46.965Z,1001.64
2019-04-26T01:07:46.965Z,1001.61
2019-04-26T01:08:46.962Z,1001.60
2019-04-26T01:09:46.958Z,1001.57
2019-04-26T01:10:46.950Z,1001.53
2019-04-26T01:11:46.953Z,1001.46
2019-04-26T01:12:46.942Z,1001.42
2019-04-26T01:13:46.942Z,1001.43
2019-04-26T01:14:46.938Z,1001.42
2019-04-26T01:15:46.929Z,1001.43
2019-04-26T01:16:46.930Z,1001.43
2019-04-26T01:17:46.924Z,1001.41
2019-04-26T01:18:46.919Z,1001.48
2019-04-26T01:19:46.915Z,1001.48
2019-04-26T01:20:46.912Z,1001.50
2019-04-26T01:21:46.911Z,1001.57
2019-04-26T01:22:46.905Z,1001.65
2019-04-26T01:23:46.898Z,1001.68
2019-04-26T01:24:46.899Z,1001.73
2019-04-26T01:25:46.901Z,1001.79
2019-04-26T01:26:46.894Z,1001.81
2019-04-26T01:27:46.879Z,1001.79
2019-04-26T01:28:46.880Z,1001.89
2019-04-26T01:29:46.871Z,1001.85
2019-04-26T01:30:46.870Z,1001.94
2019-04-26T01:31:46.870Z,1001.96
2019-04-26T01:32:46.861Z,1001.93
2019-04-26T01:33:46.862Z,1001.95
2019-04-26T01:34:46.853Z,1001.90
2019-04-26T01:35:46.848Z,1001.81
2019-04-26T01:36:46.846Z,1001.73
2019-04-26T01:37:46.841Z,1001.68
2019-04-26T01:38:46.839Z,1001.65
2019-04-26T01:39:46.835Z,1001.60
2019-04-26T01:40:46.828Z,1001.57
2019-04-26T01:41:46.824Z,1001.62
2019-04-26T01:42:46.820Z,1001.66
2019-04-26T01:43:46.819Z,1001.69
2019-04-26T01:44:46.812Z,1001.70
2019-04-26T01:45:46.807Z,1001.76
2019-04-26T01:46:46.808Z,1001.75
2019-04-26T01:47:46.798Z,1001.76
2019-04-26T01:48:46.802Z,1001.73
2019-04-26T01:49:46.796Z,1001.76
2019-04-26T01:50:46.805Z,1001.77
2019-04-26T01:51:46.786Z,1001.83
2019-04-26T01:52:46.783Z,1001.90
2019-04-26T01:53:46.776Z,1001.96
2019-04-26T01:54:46.768Z,1001.98
2019-04-26T01:55:46.771Z,1002.00
2019-04-26T01:56:46.765Z,1002.06
2019-04-26T01:57:46.763Z,1002.08
2019-04-26T01:58:46.817Z,1002.15
2019-04-26T01:59:46.753Z,1002.14
2019-04-26T02:00:46.750Z,1002.14
2019-04-26T02:01:46.739Z,1002.03
2019-04-26T02:02:46.770Z,1001.97
2019-04-26T02:03:46.731Z,1001.90
2019-04-26T02:04:46.725Z,1001.86
2019-04-26T02:05:46.729Z,1001.81
2019-04-26T02:06:46.720Z,1001.80
2019-04-26T02:07:46.717Z,1001.82
2019-04-26T02:08:46.712Z,1001.82
2019-04-26T02:09:46.708Z,1001.84
2019-04-26T02:10:46.708Z,1001.81
2019-04-26T02:11:46.699Z,1001.78
2019-04-26T02:12:46.698Z,1001.76
2019-04-26T02:13:46.692Z,1001.76
2019-04-26T02:14:46.685Z,1001.77
2019-04-26T02:15:46.688Z,1001.76
2019-04-26T02:16:46.679Z,1001.81
2019-04-26T02:17:46.675Z,1001.84
2019-04-26T02:18:46.724Z,1001.92
2019-04-26T02:19:46.670Z,1001.93
2019-04-26T02:20:46.661Z,1001.91
2019-04-26T02:21:46.662Z,1001.91
2019-04-26T02:22:46.658Z,1001.95
2019-04-26T02:23:46.648Z,1002.02
2019-04-26T02:24:46.644Z,1002.02
2019-04-26T02:25:46.639Z,1002.04
2019-04-26T02:26:46.640Z,1002.07
2019-04-26T02:27:46.631Z,1002.12
2019-04-26T02:28:46.633Z,1002.09
2019-04-26T02:29:46.632Z,1002.09
2019-04-26T02:30:46.622Z,1002.09
2019-04-26T02:31:46.622Z,1002.12
2019-04-26T02:32:46.610Z,1002.15
2019-04-26T02:33:46.610Z,1002.16
2019-04-26T02:34:46.608Z,1002.19
2019-04-26T02:35:46.607Z,1002.21
2019-04-26T02:36:57.006Z,1002.23
2019-04-26T02:37:46.595Z,1002.27
2019-04-26T02:38:46.598Z,1002.28
2019-04-26T02:39:46.589Z,1002.31
2019-04-26T02:40:46.577Z,1002.33
2019-04-26T02:41:46.578Z,1002.29
2019-04-26T02:42:46.587Z,1002.26
2019-04-26T02:43:46.568Z,1002.23
2019-04-26T02:44:46.569Z,1002.22
2019-04-26T02:45:46.561Z,1002.20
2019-04-26T02:46:46.556Z,1002.21
2019-04-26T02:47:46.550Z,1002.24
2019-04-26T02:48:46.547Z,1002.26
2019-04-26T02:49:46.546Z,1002.28
2019-04-26T02:50:46.538Z,1002.26
2019-04-26T02:51:46.536Z,1002.26
2019-04-26T02:52:46.535Z,1002.20
2019-04-26T02:53:46.531Z,1002.22
2019-04-26T02:54:46.524Z,1002.15
2019-04-26T02:55:46.519Z,1002.13
2019-04-26T02:56:46.516Z,1002.08
2019-04-26T02:57:46.509Z,1002.03
2019-04-26T02:58:46.505Z,1002.07
2019-04-26T02:59:46.505Z,1002.03
2019-04-26T03:00:46.498Z,1002.02
2019-04-26T03:01:46.489Z,1002.01
2019-04-26T03:02:46.487Z,1001.99
2019-04-26T03:03:46.515Z,1002.00
2019-04-26T03:04:46.485Z,1002.07
2019-04-26T03:05:46.483Z,1002.10
2019-04-26T03:07:02.501Z,1002.16
2019-04-26T03:07:46.473Z,1002.17
2019-04-26T03:08:46.469Z,1002.23
2019-04-26T03:09:46.461Z,1002.25
2019-04-26T03:10:46.460Z,1002.23
2019-04-26T03:11:46.464Z,1002.12
2019-04-26T03:12:46.449Z,1002.04
2019-04-26T03:13:46.449Z,1001.96
2019-04-26T03:14:46.438Z,1001.94
2019-04-26T03:15:46.432Z,1001.96
2019-04-26T03:16:46.434Z,1002.00
2019-04-26T03:17:46.427Z,1002.02
2019-04-26T03:18:46.425Z,1002.06
2019-04-26T03:19:46.421Z,1002.09
2019-04-26T03:20:46.421Z,1002.07
2019-04-26T03:21:46.409Z,1002.14
2019-04-26T03:22:46.408Z,1002.13
2019-04-26T03:23:57.474Z,1002.14
2019-04-26T03:24:48.709Z,1002.08
2019-04-26T03:25:46.395Z,1002.02
2019-04-26T03:26:46.387Z,1002.05
2019-04-26T03:27:46.391Z,1002.06
2019-04-26T03:28:46.377Z,1002.12
2019-04-26T03:29:46.384Z,1002.11
2019-04-26T03:30:52.372Z,1002.14
2019-04-26T03:31:53.340Z,1002.11
2019-04-26T03:32:50.845Z,1002.06
2019-04-26T03:33:53.224Z,1001.97
2019-04-26T03:34:53.590Z,1001.90
2019-04-26T03:35:56.387Z,1001.80
2019-04-26T03:36:46.349Z,1001.70
2019-04-26T03:37:46.345Z,1001.64
2019-04-26T03:38:46.344Z,1001.63
2019-04-26T03:39:46.340Z,1001.67
2019-04-26T03:40:46.331Z,1001.76
2019-04-26T03:41:46.329Z,1001.83
2019-04-26T03:42:46.326Z,1001.86
2019-04-26T03:43:46.321Z,1001.92
2019-04-26T03:44:46.311Z,1001.95
2019-04-26T03:45:46.315Z,1001.95
2019-04-26T03:46:46.314Z,1001.94
2019-04-26T03:47:46.300Z,1001.93
2019-04-26T03:48:46.302Z,1001.94
2019-04-26T03:49:46.294Z,1001.92
2019-04-26T03:50:46.291Z,1001.94
2019-04-26T03:51:46.290Z,1002.01
2019-04-26T03:52:46.283Z,1002.04
2019-04-26T03:53:46.299Z,1002.06
2019-04-26T03:54:46.275Z,1002.11
2019-04-26T03:55:46.269Z,1002.22
2019-04-26T03:56:46.263Z,1002.27
2019-04-26T03:57:46.268Z,1002.34
2019-04-26T03:58:46.262Z,1002.35
2019-04-26T03:59:46.251Z,1002.35
2019-04-26T04:00:47.089Z,1002.40
2019-04-26T04:01:46.339Z,1002.42
2019-04-26T04:02:46.905Z,1002.46
2019-04-26T04:03:47.792Z,1002.48
2019-04-26T04:04:46.728Z,1002.50
2019-04-26T04:05:47.785Z,1002.47
2019-04-26T04:07:02.476Z,1002.51
2019-04-26T04:07:51.260Z,1002.51
2019-04-26T04:08:47.908Z,1002.51
2019-04-26T04:09:46.780Z,1002.51
2019-04-26T04:10:47.724Z,1002.54
2019-04-26T04:11:47.520Z,1002.52
2019-04-26T04:12:47.693Z,1002.56
2019-04-26T04:13:50.468Z,1002.59
2019-04-26T04:14:47.155Z,1002.60
2019-04-26T04:15:46.773Z,1002.61
2019-04-26T04:16:48.421Z,1002.64
2019-04-26T04:17:48.268Z,1002.60
2019-04-26T04:18:47.620Z,1002.60
2019-04-26T04:19:47.445Z,1002.58
2019-04-26T04:20:46.280Z,1002.59
2019-04-26T04:21:47.066Z,1002.61
2019-04-26T04:22:47.866Z,1002.62
2019-04-26T04:23:47.190Z,1002.63
2019-04-26T04:24:46.956Z,1002.57
2019-04-26T04:25:47.665Z,1002.55
2019-04-26T04:26:46.779Z,1002.55
2019-04-26T04:27:47.884Z,1002.54
2019-04-26T04:28:47.850Z,1002.54
2019-04-26T04:29:51.212Z,1002.51
2019-04-26T04:30:47.754Z,1002.55
2019-04-26T04:31:47.674Z,1002.53
2019-04-26T04:32:47.615Z,1002.58
2019-04-26T04:33:47.851Z,1002.63
2019-04-26T04:34:48.190Z,1002.64
2019-04-26T04:35:47.891Z,1002.67
2019-04-26T04:36:48.944Z,1002.67
2019-04-26T04:38:06.699Z,1002.66
2019-04-26T04:38:47.862Z,1002.63
2019-04-26T04:39:47.835Z,1002.65
2019-04-26T04:40:47.218Z,1002.61
2019-04-26T04:41:46.997Z,1002.59
2019-04-26T04:42:47.888Z,1002.53
2019-04-26T04:43:48.764Z,1002.54
2019-04-26T04:44:47.789Z,1002.48
2019-04-26T04:45:47.596Z,1002.53
2019-04-26T04:46:49.174Z,1002.49
2019-04-26T04:47:49.226Z,1002.55
2019-04-26T04:48:48.151Z,1002.54
2019-04-26T04:49:47.016Z,1002.55
2019-04-26T04:50:47.526Z,1002.56
2019-04-26T04:51:46.900Z,1002.55
2019-04-26T04:52:46.407Z,1002.51
2019-04-26T04:53:46.500Z,1002.56
2019-04-26T04:55:00.817Z,1002.56
2019-04-26T04:55:46.313Z,1002.56
2019-04-26T04:56:46.011Z,1002.57
2019-04-26T04:57:46.013Z,1002.64
2019-04-26T04:58:46.341Z,1002.62
2019-04-26T04:59:46.150Z,1002.61
2019-04-26T05:00:47.142Z,1002.61
2019-04-26T05:01:46.296Z,1002.66
2019-04-26T05:02:46.695Z,1002.70
2019-04-26T05:03:46.948Z,1002.72
2019-04-26T05:04:46.843Z,1002.80
2019-04-26T05:05:46.905Z,1002.85
2019-04-26T05:06:46.941Z,1002.86
2019-04-26T05:07:45.971Z,1002.88
2019-04-26T05:08:48.862Z,1002.94
2019-04-26T05:09:45.959Z,1002.93
2019-04-26T05:10:45.953Z,1002.96
2019-04-26T05:11:45.951Z,1002.94
2019-04-26T05:12:45.946Z,1002.95
2019-04-26T05:13:46.360Z,1003.02
2019-04-26T05:14:46.209Z,1003.05
2019-04-26T05:15:46.376Z,1003.02
2019-04-26T05:16:46.547Z,1003.02
2019-04-26T05:17:46.187Z,1003.07
2019-04-26T05:18:46.579Z,1003.04
2019-04-26T05:19:46.841Z,1003.04
2019-04-26T05:20:46.957Z,1003.04
2019-04-26T05:21:46.671Z,1003.01
2019-04-26T05:22:47.233Z,1002.97
2019-04-26T05:23:47.096Z,1002.97
2019-04-26T05:24:47.052Z,1002.96
2019-04-26T05:25:46.889Z,1003.00
2019-04-26T05:26:46.129Z,1002.99
2019-04-26T05:27:46.872Z,1002.98
2019-04-26T05:28:46.256Z,1003.00
2019-04-26T05:29:46.605Z,1002.99
2019-04-26T05:30:46.613Z,1002.94
2019-04-26T05:31:47.084Z,1002.91
2019-04-26T05:32:47.119Z,1002.96
2019-04-26T05:33:46.149Z,1002.91
2019-04-26T05:34:46.411Z,1002.91
2019-04-26T05:35:46.229Z,1002.85
2019-04-26T05:36:46.309Z,1002.90
2019-04-26T05:37:46.735Z,1002.95
2019-04-26T05:38:47.799Z,1002.96
2019-04-26T05:39:47.722Z,1002.97
2019-04-26T05:40:45.821Z,1002.99
2019-04-26T05:41:45.819Z,1002.96
2019-04-26T05:42:45.817Z,1002.93
2019-04-26T05:43:45.812Z,1002.88
2019-04-26T05:44:45.808Z,1002.90
2019-04-26T05:45:45.804Z,1002.92
2019-04-26T05:46:45.805Z,1002.95
2019-04-26T05:47:45.796Z,1002.99
2019-04-26T05:48:45.793Z,1003.01
2019-04-26T05:49:45.786Z,1003.07
2019-04-26T05:50:45.784Z,1003.06
2019-04-26T05:51:45.783Z,1003.17
2019-04-26T05:52:45.778Z,1003.21
2019-04-26T05:53:45.769Z,1003.23
2019-04-26T05:54:45.765Z,1003.25
2019-04-26T05:55:45.759Z,1003.28
2019-04-26T05:56:45.759Z,1003.28
2019-04-26T05:57:45.752Z,1003.27
2019-04-26T05:58:45.749Z,1003.27
2019-04-26T05:59:45.751Z,1003.31
2019-04-26T06:00:45.745Z,1003.29
2019-04-26T06:01:45.733Z,1003.28
2019-04-26T06:02:45.732Z,1003.26
2019-04-26T06:03:45.734Z,1003.22
2019-04-26T06:04:45.721Z,1003.21
2019-04-26T06:05:45.724Z,1003.18
2019-04-26T06:06:45.712Z,1003.17
2019-04-26T06:07:45.708Z,1003.22
2019-04-26T06:08:45.708Z,1003.22
2019-04-26T06:09:45.705Z,1003.22
2019-04-26T06:10:45.698Z,1003.22
2019-04-26T06:11:45.699Z,1003.20
2019-04-26T06:12:45.686Z,1003.25
2019-04-26T06:13:45.686Z,1003.25
2019-04-26T06:14:45.680Z,1003.27
2019-04-26T06:15:45.726Z,1003.28
2019-04-26T06:16:45.669Z,1003.27
2019-04-26T06:17:45.669Z,1003.36
2019-04-26T06:18:45.665Z,1003.38
2019-04-26T06:19:45.661Z,1003.36
2019-04-26T06:20:45.652Z,1003.38
2019-04-26T06:21:45.655Z,1003.40
2019-04-26T06:22:45.650Z,1003.40
2019-04-26T06:23:45.639Z,1003.37
2019-04-26T06:24:45.639Z,1003.39
2019-04-26T06:25:45.633Z,1003.40
2019-04-26T06:26:45.626Z,1003.39
2019-04-26T06:27:45.627Z,1003.39
2019-04-26T06:28:45.626Z,1003.39
2019-04-26T06:29:45.613Z,1003.46
2019-04-26T06:30:45.845Z,1003.50
2019-04-26T06:31:45.607Z,1003.48
2019-04-26T06:32:56.172Z,1003.48
2019-04-26T06:33:45.595Z,1003.46
2019-04-26T06:34:45.595Z,1003.45
2019-04-26T06:35:45.585Z,1003.45
2019-04-26T06:36:45.617Z,1003.45
2019-04-26T06:37:45.576Z,1003.41
2019-04-26T06:38:45.579Z,1003.43
2019-04-26T06:39:45.572Z,1003.42
2019-04-26T06:40:45.561Z,1003.37
2019-04-26T06:41:45.558Z,1003.36
2019-04-26T06:42:45.560Z,1003.41
2019-04-26T06:43:45.556Z,1003.41
2019-04-26T06:44:45.546Z,1003.45
2019-04-26T06:45:45.542Z,1003.43
2019-04-26T06:46:47.496Z,1003.45
2019-04-26T06:47:45.535Z,1003.47
2019-04-26T06:48:45.527Z,1003.44
2019-04-26T06:49:45.524Z,1003.48
2019-04-26T06:50:45.523Z,1003.53
2019-04-26T06:51:45.522Z,1003.51
2019-04-26T06:52:45.506Z,1003.54
2019-04-26T06:53:45.508Z,1003.54
2019-04-26T06:54:45.498Z,1003.55
2019-04-26T06:55:45.495Z,1003.55
2019-04-26T06:56:45.488Z,1003.59
2019-04-26T06:57:45.485Z,1003.58
2019-04-26T06:58:45.485Z,1003.57
2019-04-26T06:59:45.478Z,1003.63
2019-04-26T07:00:45.469Z,1003.66
2019-04-26T07:01:45.467Z,1003.71
2019-04-26T07:02:45.463Z,1003.69
2019-04-26T07:03:45.462Z,1003.64
2019-04-26T07:04:45.452Z,1003.61
2019-04-26T07:05:45.460Z,1003.63
2019-04-26T07:06:45.445Z,1003.64
2019-04-26T07:07:45.439Z,1003.62
2019-04-26T07:08:56.716Z,1003.62
2019-04-26T07:09:45.431Z,1003.67
2019-04-26T07:10:45.486Z,1003.64
2019-04-26T07:11:45.424Z,1003.69
2019-04-26T07:12:45.416Z,1003.70
2019-04-26T07:13:45.413Z,1003.74
2019-04-26T07:14:45.406Z,1003.76
2019-04-26T07:15:45.401Z,1003.82
2019-04-26T07:16:45.405Z,1003.81
2019-04-26T07:17:45.395Z,1003.81
2019-04-26T07:18:45.392Z,1003.86
2019-04-26T07:19:45.390Z,1003.91
2019-04-26T07:20:45.384Z,1003.96
2019-04-26T07:21:45.380Z,1004.06
2019-04-26T07:22:45.374Z,1004.13
2019-04-26T07:23:45.376Z,1004.16
2019-04-26T07:24:45.371Z,1004.17
2019-04-26T07:25:45.362Z,1004.16
2019-04-26T07:26:45.359Z,1004.22
2019-04-26T07:27:45.356Z,1004.25
2019-04-26T07:28:45.355Z,1004.22
2019-04-26T07:29:45.343Z,1004.18
2019-04-26T07:30:45.341Z,1004.15
2019-04-26T07:31:45.340Z,1004.10
2019-04-26T07:32:45.337Z,1004.07
2019-04-26T07:33:45.331Z,1004.00
2019-04-26T07:34:45.326Z,1003.98
2019-04-26T07:35:45.322Z,1003.92
2019-04-26T07:36:45.321Z,1003.89
2019-04-26T07:37:45.313Z,1003.91
2019-04-26T07:38:45.306Z,1003.93
2019-04-26T07:39:45.306Z,1003.92
2019-04-26T07:40:45.296Z,1003.89
2019-04-26T07:41:45.292Z,1003.88
2019-04-26T07:42:45.291Z,1003.88
2019-04-26T07:43:45.286Z,1003.90
2019-04-26T07:44:45.278Z,1003.86
2019-04-26T07:45:45.277Z,1003.85
2019-04-26T07:46:45.273Z,1003.83
2019-04-26T07:47:45.269Z,1003.81
2019-04-26T07:48:45.268Z,1003.80
2019-04-26T07:49:45.260Z,1003.82
2019-04-26T07:50:45.259Z,1003.85
2019-04-26T07:51:45.251Z,1003.89
2019-04-26T07:52:45.246Z,1003.91
2019-04-26T07:53:45.249Z,1003.97
2019-04-26T07:54:45.294Z,1004.00
2019-04-26T07:55:45.239Z,1004.05
2019-04-26T07:56:45.235Z,1004.11
2019-04-26T07:57:45.224Z,1004.18
2019-04-26T07:58:45.225Z,1004.20
2019-04-26T07:59:45.219Z,1004.24
2019-04-26T08:00:45.346Z,1004.24
2019-04-26T08:01:45.215Z,1004.28
2019-04-26T08:02:45.214Z,1004.36
2019-04-26T08:03:45.234Z,1004.34
2019-04-26T08:04:45.200Z,1004.35
2019-04-26T08:05:45.193Z,1004.36
2019-04-26T08:06:45.192Z,1004.40
2019-04-26T08:07:45.185Z,1004.40
2019-04-26T08:08:45.181Z,1004.40
2019-04-26T08:09:47.309Z,1004.38
2019-04-26T08:10:45.181Z,1004.38
2019-04-26T08:11:45.176Z,1004.43
2019-04-26T08:12:45.165Z,1004.42
2019-04-26T08:13:45.165Z,1004.45
2019-04-26T08:14:45.160Z,1004.46
2019-04-26T08:15:45.158Z,1004.47
2019-04-26T08:16:45.155Z,1004.45
2019-04-26T08:17:45.144Z,1004.48
2019-04-26T08:18:45.140Z,1004.46
2019-04-26T08:19:45.143Z,1004.48
2019-04-26T08:20:48.062Z,1004.45
2019-04-26T08:21:48.150Z,1004.44
2019-04-26T08:22:45.130Z,1004.39
2019-04-26T08:23:45.125Z,1004.45
2019-04-26T08:24:45.126Z,1004.47
2019-04-26T08:25:45.116Z,1004.43
2019-04-26T08:26:45.117Z,1004.45
2019-04-26T08:27:45.116Z,1004.46
2019-04-26T08:28:45.109Z,1004.50
2019-04-26T08:29:45.102Z,1004.49
2019-04-26T08:30:46.197Z,1004.53
2019-04-26T08:31:45.097Z,1004.60
2019-04-26T08:32:46.786Z,1004.61
2019-04-26T08:33:48.994Z,1004.66
2019-04-26T08:34:45.089Z,1004.67
2019-04-26T08:35:48.925Z,1004.71
2019-04-26T08:36:45.081Z,1004.76
2019-04-26T08:37:45.077Z,1004.81
2019-04-26T08:38:45.068Z,1004.80
2019-04-26T08:39:48.820Z,1004.84
2019-04-26T08:40:45.062Z,1004.89
2019-04-26T08:41:45.063Z,1004.88
2019-04-26T08:42:45.058Z,1004.90
2019-04-26T08:43:45.053Z,1004.92
2019-04-26T08:44:45.049Z,1004.94
2019-04-26T08:46:01.522Z,1004.94
2019-04-26T08:46:45.045Z,1004.95
2019-04-26T08:47:45.928Z,1004.96
2019-04-26T08:48:45.030Z,1004.99
2019-04-26T08:49:45.030Z,1005.02
2019-04-26T08:50:45.931Z,1005.02
2019-04-26T08:51:45.029Z,1005.06
2019-04-26T08:52:45.029Z,1005.02
2019-04-26T08:53:45.020Z,1005.02
2019-04-26T08:54:45.012Z,1005.07
2019-04-26T08:55:45.009Z,1005.02
2019-04-26T08:56:45.006Z,1005.04
2019-04-26T08:57:45.001Z,1005.07
2019-04-26T08:58:44.999Z,1005.05
2019-04-26T08:59:44.992Z,1005.05
2019-04-26T09:00:44.989Z,1005.08
2019-04-26T09:01:45.545Z,1005.11
2019-04-26T09:02:44.986Z,1005.06
2019-04-26T09:03:44.984Z,1005.04
2019-04-26T09:04:44.983Z,1005.10
2019-04-26T09:05:45.612Z,1005.07
2019-04-26T09:06:44.976Z,1005.09
2019-04-26T09:07:44.971Z,1005.05
2019-04-26T09:08:45.130Z,1005.08
2019-04-26T09:09:56.517Z,1005.16
2019-04-26T09:10:44.963Z,1005.13
2019-04-26T09:11:44.956Z,1005.16
2019-04-26T09:12:44.952Z,1005.15
2019-04-26T09:13:44.952Z,1005.12
2019-04-26T09:14:44.953Z,1005.15
2019-04-26T09:15:44.946Z,1005.20
2019-04-26T09:16:50.466Z,1005.15
2019-04-26T09:17:44.945Z,1005.13
2019-04-26T09:18:48.442Z,1005.14
2019-04-26T09:19:44.942Z,1005.11
2019-04-26T09:20:44.937Z,1005.07
2019-04-26T09:21:47.397Z,1005.00
2019-04-26T09:22:44.931Z,1004.97
2019-04-26T09:23:50.830Z,1004.90
2019-04-26T09:24:45.489Z,1004.85
2019-04-26T09:25:44.920Z,1004.85
2019-04-26T09:26:46.650Z,1004.87
2019-04-26T09:27:44.916Z,1004.84
2019-04-26T09:28:44.916Z,1004.80
2019-04-26T09:29:44.915Z,1004.88
2019-04-26T09:30:47.570Z,1004.88
2019-04-26T09:31:44.909Z,1004.90
2019-04-26T09:32:44.915Z,1004.91
2019-04-26T09:33:44.906Z,1004.93
2019-04-26T09:34:44.913Z,1005.00
2019-04-26T09:35:44.909Z,1005.04
2019-04-26T09:36:44.900Z,1005.06
2019-04-26T09:37:44.908Z,1005.06
2019-04-26T09:38:44.898Z,1005.10
2019-04-26T09:39:44.900Z,1005.19
2019-04-26T09:40:44.908Z,1005.18
2019-04-26T09:41:44.899Z,1005.23
2019-04-26T09:42:44.896Z,1005.27
2019-04-26T09:43:44.895Z,1005.20
2019-04-26T09:44:44.896Z,1005.20
2019-04-26T09:45:44.892Z,1005.20
2019-04-26T09:46:48.521Z,1005.19
2019-04-26T09:47:44.888Z,1005.22
2019-04-26T09:48:44.886Z,1005.28
2019-04-26T09:49:44.894Z,1005.24
2019-04-26T09:50:44.886Z,1005.25
2019-04-26T09:51:44.883Z,1005.20
2019-04-26T09:52:44.886Z,1005.19
2019-04-26T09:53:44.880Z,1005.19
2019-04-26T09:54:44.887Z,1005.18
2019-04-26T09:55:44.886Z,1005.19
2019-04-26T09:56:44.881Z,1005.18
2019-04-26T09:57:44.879Z,1005.18
2019-04-26T09:58:44.883Z,1005.17
2019-04-26T09:59:44.880Z,1005.24
2019-04-26T10:00:48.487Z,1005.19
2019-04-26T10:01:44.877Z,1005.18
2019-04-26T10:02:44.876Z,1005.16
2019-04-26T10:03:44.873Z,1005.22
2019-04-26T10:04:44.869Z,1005.20
2019-04-26T10:05:44.868Z,1005.19
2019-04-26T10:06:44.866Z,1005.18
2019-04-26T10:07:44.864Z,1005.22
2019-04-26T10:08:47.005Z,1005.20
2019-04-26T10:09:44.865Z,1005.18
2019-04-26T10:10:44.858Z,1005.14
2019-04-26T10:11:44.864Z,1005.14
2019-04-26T10:12:44.861Z,1005.17
2019-04-26T10:13:44.859Z,1005.13
2019-04-26T10:14:46.493Z,1005.11
2019-04-26T10:15:44.852Z,1005.08
2019-04-26T10:16:44.852Z,1005.12
2019-04-26T10:17:46.411Z,1005.10
2019-04-26T10:18:44.855Z,1005.11
2019-04-26T10:19:44.846Z,1005.15
2019-04-26T10:20:44.851Z,1005.11
2019-04-26T10:21:44.844Z,1005.17
2019-04-26T10:22:44.844Z,1005.14
2019-04-26T10:23:44.846Z,1005.09
2019-04-26T10:24:44.851Z,1005.07
2019-04-26T10:25:47.326Z,1005.04
2019-04-26T10:26:44.845Z,1005.01
2019-04-26T10:27:44.849Z,1005.06
2019-04-26T10:28:46.829Z,1005.01
2019-04-26T10:29:44.844Z,1005.05
2019-04-26T10:30:44.842Z,1005.05
2019-04-26T10:31:47.613Z,1005.03
2019-04-26T10:32:44.842Z,1005.06
2019-04-26T10:33:44.839Z,1005.07
2019-04-26T10:34:47.418Z,1005.04
2019-04-26T10:35:44.837Z,1005.07
2019-04-26T10:36:44.838Z,1005.00
2019-04-26T10:37:48.062Z,1005.05
2019-04-26T10:38:44.834Z,1005.05
2019-04-26T10:39:44.833Z,1005.04
2019-04-26T10:40:44.829Z,1005.04
2019-04-26T10:41:44.833Z,1005.11
2019-04-26T10:42:44.831Z,1005.09
2019-04-26T10:43:44.828Z,1005.12
2019-04-26T10:44:44.827Z,1005.16
2019-04-26T10:45:45.989Z,1005.11
2019-04-26T10:46:55.055Z,1005.11
2019-04-26T10:47:44.827Z,1005.08
2019-04-26T10:48:45.467Z,1005.09
2019-04-26T10:49:44.836Z,1005.10
2019-04-26T10:50:44.830Z,1005.14
2019-04-26T10:51:44.823Z,1005.15
2019-04-26T10:52:49.686Z,1005.08
2019-04-26T10:53:44.821Z,1005.09
2019-04-26T10:54:46.097Z,1005.08
2019-04-26T10:55:46.574Z,1005.10
2019-04-26T10:56:44.816Z,1005.10
2019-04-26T10:57:44.811Z,1005.17
2019-04-26T10:58:44.819Z,1005.12
2019-04-26T10:59:45.529Z,1005.11
2019-04-26T11:00:48.335Z,1005.19
2019-04-26T11:01:44.810Z,1005.19
2019-04-26T11:02:44.809Z,1005.20
2019-04-26T11:03:44.808Z,1005.19
2019-04-26T11:04:44.810Z,1005.18
2019-04-26T11:05:44.802Z,1005.19
2019-04-26T11:06:44.805Z,1005.22
2019-04-26T11:07:44.799Z,1005.24
2019-04-26T11:08:44.804Z,1005.25
2019-04-26T11:09:44.793Z,1005.27
2019-04-26T11:10:48.799Z,1005.33
2019-04-26T11:11:44.798Z,1005.33
2019-04-26T11:12:44.856Z,1005.38
2019-04-26T11:13:44.790Z,1005.41
2019-04-26T11:14:44.791Z,1005.37
2019-04-26T11:15:44.784Z,1005.39
2019-04-26T11:16:44.788Z,1005.40
2019-04-26T11:17:46.009Z,1005.42
2019-04-26T11:18:44.780Z,1005.40
2019-04-26T11:19:44.778Z,1005.43
2019-04-26T11:20:45.587Z,1005.49
2019-04-26T11:21:44.777Z,1005.47
2019-04-26T11:22:44.777Z,1005.52
2019-04-26T11:23:45.571Z,1005.44
2019-04-26T11:24:44.766Z,1005.47
2019-04-26T11:25:44.765Z,1005.48
2019-04-26T11:26:44.768Z,1005.47
2019-04-26T11:27:48.502Z,1005.48
2019-04-26T11:28:44.766Z,1005.52
2019-04-26T11:29:53.619Z,1005.52
2019-04-26T11:30:48.061Z,1005.47
2019-04-26T11:31:44.761Z,1005.48
2019-04-26T11:32:45.814Z,1005.48
2019-04-26T11:33:45.294Z,1005.49
2019-04-26T11:34:44.749Z,1005.42
2019-04-26T11:35:44.768Z,1005.48
2019-04-26T11:36:44.894Z,1005.40
2019-04-26T11:37:46.271Z,1005.44
2019-04-26T11:38:44.756Z,1005.47
2019-04-26T11:39:44.755Z,1005.44
2019-04-26T11:40:49.806Z,1005.38
2019-04-26T11:41:44.735Z,1005.40
2019-04-26T11:42:45.759Z,1005.37
2019-04-26T11:43:44.731Z,1005.36
2019-04-26T11:44:44.933Z,1005.32
2019-04-26T11:45:45.323Z,1005.26
2019-04-26T11:46:45.472Z,1005.27
2019-04-26T11:47:55.407Z,1005.24
2019-04-26T11:48:44.723Z,1005.26
2019-04-26T11:49:44.718Z,1005.22
2019-04-26T11:50:44.718Z,1005.26
2019-04-26T11:51:44.722Z,1005.30
2019-04-26T11:52:44.715Z,1005.33
2019-04-26T11:53:46.163Z,1005.31
2019-04-26T11:54:44.710Z,1005.34
2019-04-26T11:55:44.712Z,1005.34
2019-04-26T11:56:44.711Z,1005.35
2019-04-26T11:57:47.535Z,1005.34
2019-04-26T11:58:44.706Z,1005.36
2019-04-26T11:59:44.712Z,1005.32
2019-04-26T12:00:44.708Z,1005.31
2019-04-26T12:01:44.703Z,1005.26
2019-04-26T12:02:46.325Z,1005.35
2019-04-26T12:03:44.699Z,1005.31
2019-04-26T12:04:44.698Z,1005.31
2019-04-26T12:05:44.696Z,1005.30